createdAt,value
2022-10-21T00:00:36.239Z,15.00
2022-10-21T00:01:36.262Z,14.97
2022-10-21T00:02:36.503Z,14.96
2022-10-21T00:03:36.195Z,15.07
2022-10-21T00:04:36.181Z,14.97
2022-10-21T00:05:36.165Z,15.00
2022-10-21T00:06:36.145Z,15.00
2022-10-21T00:07:36.131Z,15.08
2022-10-21T00:08:36.191Z,15.08
2022-10-21T00:09:36.104Z,15.07
2022-10-21T00:11:36.073Z,15.11
2022-10-21T00:12:36.309Z,15.07
2022-10-21T00:13:36.043Z,15.04
2022-10-21T00:14:36.022Z,15.14
2022-10-21T00:15:36.011Z,15.04
2022-10-21T00:16:35.992Z,15.11
2022-10-21T00:17:35.979Z,15.04
2022-10-21T00:18:35.961Z,15.07
2022-10-21T00:19:35.949Z,15.10
2022-10-21T00:20:38.820Z,15.14
2022-10-21T00:21:35.917Z,15.08
2022-10-21T00:22:36.272Z,15.15
2022-10-21T00:23:35.887Z,15.15
2022-10-21T00:24:35.871Z,15.11
2022-10-21T00:25:35.860Z,15.15
2022-10-21T00:26:37.739Z,15.17
2022-10-21T00:27:36.148Z,15.12
2022-10-21T00:28:35.809Z,15.07
2022-10-21T00:29:35.799Z,15.08
2022-10-21T00:30:35.779Z,15.10
2022-10-21T00:31:35.767Z,15.17
2022-10-21T00:32:36.190Z,15.15
2022-10-21T00:33:35.736Z,15.08
2022-10-21T00:34:35.718Z,15.05
2022-10-21T00:35:35.705Z,15.04
2022-10-21T00:36:35.689Z,15.12
2022-10-21T00:37:35.944Z,15.07
2022-10-21T00:38:35.656Z,15.07
2022-10-21T00:39:35.643Z,15.07
2022-10-21T00:40:35.626Z,15.07
2022-10-21T00:41:35.616Z,15.07
2022-10-21T00:42:35.914Z,15.07
2022-10-21T00:43:35.581Z,15.04
2022-10-21T00:44:35.565Z,15.08
2022-10-21T00:45:35.553Z,15.14
2022-10-21T00:46:35.536Z,15.19
2022-10-21T00:47:35.578Z,15.19
2022-10-21T00:48:35.506Z,15.17
2022-10-21T00:49:35.492Z,15.18
2022-10-21T00:50:37.601Z,15.08
2022-10-21T00:51:35.461Z,15.18
2022-10-21T00:52:35.672Z,15.19
2022-10-21T00:53:35.430Z,15.18
2022-10-21T00:54:35.415Z,15.17
2022-10-21T00:55:35.400Z,15.19
2022-10-21T00:56:35.386Z,15.17
2022-10-21T00:57:35.610Z,15.15
2022-10-21T00:58:35.354Z,15.08
2022-10-21T00:59:35.341Z,15.07
2022-10-21T01:00:35.324Z,15.11
2022-10-21T01:01:35.410Z,15.10
2022-10-21T01:02:35.296Z,15.07
2022-10-21T01:03:35.283Z,15.04
2022-10-21T01:04:35.266Z,15.00
2022-10-21T01:05:35.252Z,15.00
2022-10-21T01:06:35.234Z,14.97
2022-10-21T01:07:37.594Z,15.04
2022-10-21T01:08:35.253Z,14.96
2022-10-21T01:09:35.201Z,14.99
2022-10-21T01:10:35.175Z,14.99
2022-10-21T01:11:35.161Z,14.97
2022-10-21T01:12:35.145Z,15.00
2022-10-21T01:13:35.167Z,14.93
2022-10-21T01:14:35.118Z,14.97
2022-10-21T01:15:35.105Z,14.97
2022-10-21T01:16:35.084Z,14.96
2022-10-21T01:17:47.321Z,14.93
2022-10-21T01:18:35.056Z,14.92
2022-10-21T01:19:35.045Z,14.89
2022-10-21T01:20:35.025Z,14.92
2022-10-21T01:21:35.010Z,14.90
2022-10-21T01:22:34.994Z,14.85
2022-10-21T01:23:34.981Z,14.85
2022-10-21T01:24:34.965Z,14.93
2022-10-21T01:25:34.951Z,14.87
2022-10-21T01:26:34.941Z,14.85
2022-10-21T01:27:35.243Z,14.79
2022-10-21T01:28:34.904Z,14.86
2022-10-21T01:29:34.894Z,14.82
2022-10-21T01:30:34.887Z,14.78
2022-10-21T01:31:34.867Z,14.82
2022-10-21T01:32:34.843Z,14.81
2022-10-21T01:33:34.829Z,14.79
2022-10-21T01:34:34.813Z,14.74
2022-10-21T01:35:34.802Z,14.78
2022-10-21T01:36:34.784Z,14.73
2022-10-21T01:37:34.854Z,14.70
2022-10-21T01:38:34.752Z,14.74
2022-10-21T01:39:34.744Z,14.66
2022-10-21T01:40:34.722Z,14.68
2022-10-21T01:41:34.709Z,14.66
2022-10-21T01:42:34.729Z,14.62
2022-10-21T01:43:34.679Z,14.63
2022-10-21T01:44:34.663Z,14.59
2022-10-21T01:45:34.649Z,14.49
2022-10-21T01:46:34.631Z,14.49
2022-10-21T01:47:34.621Z,14.49
2022-10-21T01:48:34.610Z,14.43
2022-10-21T01:49:34.587Z,14.41
2022-10-21T01:50:34.573Z,14.38
2022-10-21T01:51:34.558Z,14.48
2022-10-21T01:52:34.561Z,14.36
2022-10-21T01:53:34.529Z,14.44
2022-10-21T01:54:34.512Z,14.48
2022-10-21T01:55:34.496Z,14.49
2022-10-21T01:56:34.480Z,14.48
2022-10-21T01:57:34.468Z,14.53
2022-10-21T01:58:34.453Z,14.59
2022-10-21T01:59:34.435Z,14.63
2022-10-21T02:00:34.420Z,14.66
2022-10-21T02:01:34.456Z,14.62
2022-10-21T02:02:34.388Z,14.63
2022-10-21T02:03:34.377Z,14.63
2022-10-21T02:04:34.356Z,14.63
2022-10-21T02:05:34.350Z,14.62
2022-10-21T02:06:34.328Z,14.66
2022-10-21T02:07:34.318Z,14.62
2022-10-21T02:08:34.360Z,14.66
2022-10-21T02:09:34.289Z,14.63
2022-10-21T02:10:34.265Z,14.70
2022-10-21T02:11:34.253Z,14.62
2022-10-21T02:12:34.236Z,14.59
2022-10-21T02:13:34.221Z,14.53
2022-10-21T02:14:34.210Z,14.56
2022-10-21T02:15:34.202Z,14.51
2022-10-21T02:16:34.176Z,14.52
2022-10-21T02:17:34.160Z,14.59
2022-10-21T02:18:34.149Z,14.59
2022-10-21T02:19:34.146Z,14.58
2022-10-21T02:20:34.112Z,14.58
2022-10-21T02:21:34.097Z,14.62
2022-10-21T02:22:34.085Z,14.59
2022-10-21T02:23:34.071Z,14.66
2022-10-21T02:24:34.050Z,14.66
2022-10-21T02:25:34.048Z,14.73
2022-10-21T02:26:34.023Z,14.73
2022-10-21T02:27:34.010Z,14.81
2022-10-21T02:28:34.035Z,14.82
2022-10-21T02:29:33.975Z,14.87
2022-10-21T02:30:33.960Z,14.82
2022-10-21T02:31:33.944Z,14.86
2022-10-21T02:32:33.927Z,14.82
2022-10-21T02:33:33.914Z,14.92
2022-10-21T02:34:33.898Z,14.81
2022-10-21T02:35:33.883Z,14.82
2022-10-21T02:36:33.867Z,14.82
2022-10-21T02:37:33.879Z,14.81
2022-10-21T02:38:33.844Z,14.82
2022-10-21T02:39:33.822Z,14.79
2022-10-21T02:40:33.806Z,14.87
2022-10-21T02:41:33.790Z,14.78
2022-10-21T02:42:33.780Z,14.85
2022-10-21T02:43:33.761Z,14.87
2022-10-21T02:44:33.747Z,14.85
2022-10-21T02:45:33.728Z,14.78
2022-10-21T02:46:33.724Z,14.74
2022-10-21T02:47:33.701Z,14.68
2022-10-21T02:48:33.684Z,14.74
2022-10-21T02:49:33.668Z,14.70
2022-10-21T02:50:33.655Z,14.63
2022-10-21T02:51:33.639Z,14.70
2022-10-21T02:52:33.623Z,14.61
2022-10-21T02:53:33.606Z,14.56
2022-10-21T02:54:33.595Z,14.58
2022-10-21T02:55:33.577Z,14.52
2022-10-21T02:56:33.562Z,14.56
2022-10-21T02:57:33.547Z,14.55
2022-10-21T02:58:33.533Z,14.44
2022-10-21T02:59:33.512Z,14.53
2022-10-21T03:00:33.502Z,14.44
2022-10-21T03:01:33.485Z,14.44
2022-10-21T03:02:33.472Z,14.43
2022-10-21T03:03:33.454Z,14.51
2022-10-21T03:04:33.440Z,14.44
2022-10-21T03:05:33.427Z,14.44
2022-10-21T03:06:33.410Z,14.52
2022-10-21T03:07:33.391Z,14.48
2022-10-21T03:08:33.441Z,14.40
2022-10-21T03:09:33.360Z,14.43
2022-10-21T03:10:33.352Z,14.44
2022-10-21T03:11:33.330Z,14.36
2022-10-21T03:12:33.314Z,14.40
2022-10-21T03:13:33.300Z,14.40
2022-10-21T03:14:33.285Z,14.33
2022-10-21T03:15:33.268Z,14.28
2022-10-21T03:16:33.256Z,14.33
2022-10-21T03:17:33.236Z,14.34
2022-10-21T03:18:33.224Z,14.40
2022-10-21T03:19:33.213Z,14.31
2022-10-21T03:20:33.195Z,14.33
2022-10-21T03:21:33.174Z,14.26
2022-10-21T03:22:33.163Z,14.28
2022-10-21T03:23:33.145Z,14.26
2022-10-21T03:24:33.129Z,14.20
2022-10-21T03:25:35.726Z,14.23
2022-10-21T03:26:33.103Z,14.18
2022-10-21T03:27:33.087Z,14.18
2022-10-21T03:28:33.066Z,14.12
2022-10-21T03:29:33.050Z,14.07
2022-10-21T03:30:33.040Z,14.11
2022-10-21T03:31:33.019Z,14.12
2022-10-21T03:32:33.005Z,14.04
2022-10-21T03:33:32.988Z,14.08
2022-10-21T03:34:32.984Z,14.05
2022-10-21T03:35:32.958Z,14.08
2022-10-21T03:36:32.944Z,14.01
2022-10-21T03:37:32.926Z,14.03
2022-10-21T03:38:32.916Z,14.00
2022-10-21T03:39:32.898Z,14.03
2022-10-21T03:40:32.880Z,14.04
2022-10-21T03:41:32.866Z,14.04
2022-10-21T03:42:32.851Z,14.01
2022-10-21T03:43:32.839Z,13.97
2022-10-21T03:44:32.820Z,13.91
2022-10-21T03:45:32.801Z,13.93
2022-10-21T03:46:32.788Z,13.97
2022-10-21T03:47:32.771Z,13.93
2022-10-21T03:48:32.759Z,13.91
2022-10-21T03:49:32.763Z,13.91
2022-10-21T03:50:32.727Z,13.86
2022-10-21T03:51:32.708Z,13.85
2022-10-21T03:52:32.701Z,13.89
2022-10-21T03:53:43.357Z,13.83
2022-10-21T03:54:32.664Z,13.97
2022-10-21T03:55:32.664Z,13.86
2022-10-21T03:56:32.631Z,13.97
2022-10-21T03:57:32.622Z,13.94
2022-10-21T03:58:32.601Z,13.91
2022-10-21T03:59:32.588Z,13.97
2022-10-21T04:00:32.573Z,14.03
2022-10-21T04:01:32.649Z,14.08
2022-10-21T04:02:32.549Z,14.00
2022-10-21T04:03:32.524Z,14.08
2022-10-21T04:04:32.516Z,14.11
2022-10-21T04:05:32.495Z,14.07
2022-10-21T04:06:32.476Z,14.11
2022-10-21T04:07:32.463Z,14.05
2022-10-21T04:08:32.453Z,14.03
2022-10-21T04:09:32.432Z,14.01
2022-10-21T04:10:32.414Z,13.97
2022-10-21T04:11:32.398Z,13.91
2022-10-21T04:12:32.389Z,13.97
2022-10-21T04:13:32.366Z,13.97
2022-10-21T04:14:32.353Z,13.94
2022-10-21T04:15:32.339Z,13.93
2022-10-21T04:16:32.323Z,13.85
2022-10-21T04:17:32.307Z,13.89
2022-10-21T04:18:32.293Z,13.89
2022-10-21T04:19:32.285Z,13.78
2022-10-21T04:20:32.259Z,13.85
2022-10-21T04:21:32.243Z,13.83
2022-10-21T04:22:32.231Z,13.80
2022-10-21T04:23:32.212Z,13.82
2022-10-21T04:24:32.195Z,13.78
2022-10-21T04:25:32.179Z,13.75
2022-10-21T04:26:32.166Z,13.80
2022-10-21T04:27:32.172Z,13.82
2022-10-21T04:28:32.134Z,13.87
2022-10-21T04:29:32.117Z,13.79
2022-10-21T04:30:32.106Z,13.83
2022-10-21T04:31:32.468Z,13.82
2022-10-21T04:32:32.071Z,13.82
2022-10-21T04:33:32.054Z,13.87
2022-10-21T04:34:32.040Z,13.71
2022-10-21T04:35:32.026Z,13.70
2022-10-21T04:36:32.010Z,13.71
2022-10-21T04:37:31.992Z,13.75
2022-10-21T04:38:31.979Z,13.73
2022-10-21T04:39:31.962Z,13.76
2022-10-21T04:40:31.946Z,13.65
2022-10-21T04:41:31.930Z,13.65
2022-10-21T04:42:31.918Z,13.58
2022-10-21T04:43:31.903Z,13.64
2022-10-21T04:44:31.884Z,13.61
2022-10-21T04:45:31.868Z,13.65
2022-10-21T04:46:31.854Z,13.54
2022-10-21T04:47:31.840Z,13.58
2022-10-21T04:48:31.822Z,13.52
2022-10-21T04:49:31.808Z,13.60
2022-10-21T04:50:31.796Z,13.52
2022-10-21T04:52:31.761Z,13.52
2022-10-21T04:53:31.746Z,13.58
2022-10-21T04:54:31.733Z,13.54
2022-10-21T04:55:31.711Z,13.55
2022-10-21T04:56:31.696Z,13.65
2022-10-21T04:57:31.681Z,13.62
2022-10-21T04:58:31.667Z,13.58
2022-10-21T04:59:31.648Z,13.60
2022-10-21T05:00:31.636Z,13.65
2022-10-21T05:01:31.672Z,13.60
2022-10-21T05:02:31.607Z,13.58
2022-10-21T05:03:31.589Z,13.61
2022-10-21T05:04:31.573Z,13.62
2022-10-21T05:05:31.554Z,13.60
2022-10-21T05:06:31.553Z,13.65
2022-10-21T05:07:31.526Z,13.54
2022-10-21T05:08:31.579Z,13.60
2022-10-21T05:09:31.492Z,13.60
2022-10-21T05:10:31.477Z,13.64
2022-10-21T05:11:31.464Z,13.65
2022-10-21T05:12:31.497Z,13.58
2022-10-21T05:13:31.431Z,13.67
2022-10-21T05:14:31.416Z,13.62
2022-10-21T05:15:31.401Z,13.58
2022-10-21T05:16:31.384Z,13.55
2022-10-21T05:17:31.367Z,13.65
2022-10-21T05:18:31.357Z,13.60
2022-10-21T05:19:31.620Z,13.62
2022-10-21T05:20:31.322Z,13.62
2022-10-21T05:21:31.375Z,13.58
2022-10-21T05:22:31.294Z,13.58
2022-10-21T05:23:31.273Z,13.60
2022-10-21T05:24:31.258Z,13.61
2022-10-21T05:25:34.180Z,13.64
2022-10-21T05:26:31.231Z,13.68
2022-10-21T05:27:31.210Z,13.58
2022-10-21T05:28:31.196Z,13.62
2022-10-21T05:29:31.183Z,13.60
2022-10-21T05:30:31.221Z,13.67
2022-10-21T05:31:31.153Z,13.62
2022-10-21T05:32:31.136Z,13.62
2022-10-21T05:33:31.118Z,13.58
2022-10-21T05:34:31.105Z,13.67
2022-10-21T05:35:31.091Z,13.60
2022-10-21T05:36:31.098Z,13.68
2022-10-21T05:37:31.055Z,13.62
2022-10-21T05:38:31.061Z,13.60
2022-10-21T05:39:31.072Z,13.61
2022-10-21T05:40:31.027Z,13.52
2022-10-21T05:41:30.992Z,13.57
2022-10-21T05:42:30.981Z,13.54
2022-10-21T05:43:30.962Z,13.49
2022-10-21T05:44:30.949Z,13.46
2022-10-21T05:45:38.664Z,13.50
2022-10-21T05:47:34.924Z,13.43
2022-10-21T05:48:35.048Z,13.42
2022-10-21T05:50:39.673Z,13.39
2022-10-21T05:51:39.336Z,13.31
2022-10-21T05:53:44.032Z,13.31
2022-10-21T05:54:44.052Z,13.26
2022-10-21T05:56:37.475Z,13.20
2022-10-21T05:57:37.490Z,13.20
2022-10-21T05:59:41.901Z,13.19
2022-10-21T06:00:41.905Z,13.27
2022-10-21T06:02:46.389Z,13.26
2022-10-21T06:03:46.104Z,13.19
2022-10-21T06:05:51.799Z,13.20
2022-10-21T06:06:51.679Z,13.19
2022-10-21T06:08:56.223Z,13.30
2022-10-21T06:09:55.862Z,13.24
2022-10-21T06:12:00.651Z,13.30
2022-10-21T06:13:00.633Z,13.24
2022-10-21T06:15:06.083Z,13.30
2022-10-21T06:18:10.467Z,13.23
2022-10-21T06:19:10.116Z,13.19
2022-10-21T06:21:14.900Z,13.30
2022-10-21T06:22:14.866Z,13.36
2022-10-21T06:24:19.437Z,13.45
2022-10-21T06:25:19.026Z,13.42
2022-10-21T06:27:23.835Z,13.45
2022-10-21T06:28:23.444Z,13.43
2022-10-21T06:30:29.254Z,13.50
2022-10-21T06:31:28.909Z,13.54
2022-10-21T06:33:33.670Z,13.55
2022-10-21T06:34:33.716Z,13.60
2022-10-21T06:36:26.983Z,13.60
2022-10-21T06:37:26.987Z,13.60
2022-10-21T06:39:31.460Z,13.58
2022-10-21T06:40:31.563Z,13.65
2022-10-21T06:42:35.881Z,13.61
2022-10-21T06:43:35.857Z,13.70
2022-10-21T06:45:40.323Z,13.68
2022-10-21T06:46:40.000Z,13.71
2022-10-21T06:48:44.821Z,13.68
2022-10-21T06:49:44.421Z,13.65
2022-10-21T06:51:50.160Z,13.70
2022-10-21T06:52:50.102Z,13.70
2022-10-21T06:54:54.578Z,13.82
2022-10-21T06:55:54.598Z,13.80
2022-10-21T06:57:59.081Z,13.97
2022-10-21T06:58:59.085Z,13.98
2022-10-21T07:01:03.509Z,14.05
2022-10-21T07:02:03.455Z,14.08
2022-10-21T07:04:09.004Z,14.26
2022-10-21T07:05:09.034Z,14.26
2022-10-21T07:07:02.333Z,14.37
2022-10-21T07:08:02.813Z,14.36
2022-10-21T07:10:06.744Z,14.44
2022-10-21T07:11:06.510Z,14.51
2022-10-21T07:13:11.226Z,14.55
2022-10-21T07:14:10.916Z,14.59
2022-10-21T07:16:15.681Z,14.77
2022-10-21T07:17:15.729Z,14.70
2022-10-21T07:19:21.053Z,14.85
2022-10-21T07:20:21.098Z,14.89
2022-10-21T07:22:25.467Z,14.85
2022-10-21T07:23:25.184Z,14.86
2022-10-21T07:25:29.944Z,14.81
2022-10-21T07:26:29.596Z,14.87
2022-10-21T07:28:34.386Z,14.81
2022-10-21T07:29:34.313Z,14.89
2022-10-21T07:31:39.878Z,14.87
2022-10-21T07:32:39.903Z,14.81
2022-10-21T07:34:45.260Z,14.87
2022-10-21T07:35:45.193Z,14.82
2022-10-21T07:37:49.654Z,14.82
2022-10-21T07:38:49.349Z,14.77
2022-10-21T07:40:54.100Z,14.73
2022-10-21T07:41:54.059Z,14.77
2022-10-21T07:43:58.527Z,14.77
2022-10-21T07:44:58.491Z,14.71
2022-10-21T07:46:51.683Z,14.74
2022-10-21T07:47:51.538Z,14.79
2022-10-21T07:48:51.521Z,14.74
2022-10-21T07:49:51.855Z,14.71
2022-10-21T07:50:51.872Z,14.68
2022-10-21T07:51:51.839Z,14.71
2022-10-21T07:53:02.195Z,14.70
2022-10-21T07:53:51.752Z,14.62
2022-10-21T07:54:51.846Z,14.59
2022-10-21T07:55:51.383Z,14.59
2022-10-21T07:56:51.371Z,14.62
2022-10-21T07:57:51.366Z,14.63
2022-10-21T07:58:51.336Z,14.63
2022-10-21T07:59:51.313Z,14.63
2022-10-21T08:00:51.399Z,14.62
2022-10-21T08:01:51.286Z,14.61
2022-10-21T08:02:51.271Z,14.58
2022-10-21T08:03:51.252Z,14.58
2022-10-21T08:04:51.242Z,14.62
2022-10-21T08:05:51.221Z,14.63
2022-10-21T08:06:51.207Z,14.63
2022-10-21T08:07:51.190Z,14.73
2022-10-21T08:08:51.247Z,14.66
2022-10-21T08:09:51.162Z,14.70
2022-10-21T08:10:51.163Z,14.68
2022-10-21T08:11:51.129Z,14.66
2022-10-21T08:12:51.120Z,14.71
2022-10-21T08:13:51.098Z,14.59
2022-10-21T08:14:51.084Z,14.70
2022-10-21T08:15:51.070Z,14.73
2022-10-21T08:16:51.052Z,14.77
2022-10-21T08:17:51.036Z,14.70
2022-10-21T08:18:51.026Z,14.71
2022-10-21T08:19:51.048Z,14.77
2022-10-21T08:20:50.993Z,14.77
2022-10-21T08:21:50.973Z,14.67
2022-10-21T08:22:50.960Z,14.73
2022-10-21T08:23:50.948Z,14.77
2022-10-21T08:24:50.936Z,14.70
2022-10-21T08:25:50.913Z,14.77
2022-10-21T08:26:50.898Z,14.78
2022-10-21T08:27:50.887Z,14.79
2022-10-21T08:28:50.920Z,14.78
2022-10-21T08:29:50.852Z,14.79
2022-10-21T08:30:50.836Z,14.85
2022-10-21T08:31:50.823Z,14.82
2022-10-21T08:32:50.809Z,14.81
2022-10-21T08:33:50.793Z,14.85
2022-10-21T08:34:50.774Z,14.87
2022-10-21T08:35:50.767Z,14.89
2022-10-21T08:36:50.741Z,14.81
2022-10-21T08:37:50.729Z,14.85
2022-10-21T08:38:50.712Z,14.85
2022-10-21T08:39:50.694Z,14.90
2022-10-21T08:40:53.526Z,14.79
2022-10-21T08:41:50.663Z,14.82
2022-10-21T08:42:50.649Z,14.92
2022-10-21T08:43:50.632Z,14.85
2022-10-21T08:44:50.619Z,14.89
2022-10-21T08:45:50.601Z,14.81
2022-10-21T08:46:50.593Z,14.89
2022-10-21T08:47:50.575Z,14.85
2022-10-21T08:48:50.559Z,14.89
2022-10-21T08:49:50.539Z,14.99
2022-10-21T08:50:50.524Z,14.94
2022-10-21T08:51:50.511Z,14.99
2022-10-21T08:52:50.493Z,14.94
2022-10-21T08:53:50.489Z,15.02
2022-10-21T08:54:50.463Z,15.07
2022-10-21T08:55:50.448Z,15.00
2022-10-21T08:56:50.434Z,15.04
2022-10-21T08:57:50.416Z,15.05
2022-10-21T08:58:50.402Z,15.02
2022-10-21T08:59:50.392Z,15.05
2022-10-21T09:00:50.371Z,15.04
2022-10-21T09:01:50.355Z,15.04
2022-10-21T09:02:50.386Z,15.07
2022-10-21T09:03:50.331Z,15.02
2022-10-21T09:04:50.309Z,15.04
2022-10-21T09:05:50.296Z,15.05
2022-10-21T09:06:50.289Z,15.04
2022-10-21T09:07:50.261Z,15.10
2022-10-21T09:08:52.565Z,15.05
2022-10-21T09:09:50.230Z,15.11
2022-10-21T09:10:50.220Z,15.08
2022-10-21T09:11:50.200Z,15.10
2022-10-21T09:12:50.187Z,15.02
2022-10-21T09:13:50.171Z,15.04
2022-10-21T09:14:50.164Z,15.10
2022-10-21T09:15:50.153Z,15.02
2022-10-21T09:16:50.123Z,15.22
2022-10-21T09:17:50.108Z,15.04
2022-10-21T09:18:50.097Z,15.18
2022-10-21T09:19:50.078Z,15.10
2022-10-21T09:20:55.039Z,15.23
2022-10-21T09:21:50.046Z,15.18
2022-10-21T09:22:50.034Z,15.23
2022-10-21T09:23:50.017Z,15.19
2022-10-21T09:24:50.004Z,15.26
2022-10-21T09:25:49.984Z,15.32
2022-10-21T09:26:49.976Z,15.26
2022-10-21T09:27:56.089Z,15.29
2022-10-21T09:28:49.943Z,15.19
2022-10-21T09:29:49.926Z,15.33
2022-10-21T09:30:49.910Z,15.32
2022-10-21T09:31:55.187Z,15.30
2022-10-21T09:32:49.885Z,15.33
2022-10-21T09:33:49.886Z,15.33
2022-10-21T09:34:49.848Z,15.33
2022-10-21T09:35:49.836Z,15.32
2022-10-21T09:36:49.825Z,15.32
2022-10-21T09:37:49.805Z,15.33
2022-10-21T09:38:49.789Z,15.37
2022-10-21T09:39:49.772Z,15.26
2022-10-21T09:40:49.758Z,15.33
2022-10-21T09:41:49.741Z,15.33
2022-10-21T09:42:50.194Z,15.35
2022-10-21T09:43:49.710Z,15.36
2022-10-21T09:44:49.698Z,15.26
2022-10-21T09:45:49.681Z,15.30
2022-10-21T09:46:49.668Z,15.33
2022-10-21T09:47:49.649Z,15.26
2022-10-21T09:50:16.689Z,15.27
2022-10-21T09:50:49.606Z,15.36
2022-10-21T09:51:49.591Z,15.35
2022-10-21T09:52:49.575Z,15.36
2022-10-21T09:53:53.983Z,15.32
2022-10-21T09:54:49.553Z,15.33
2022-10-21T09:55:49.532Z,15.45
2022-10-21T09:56:49.513Z,15.43
2022-10-21T09:57:49.498Z,15.39
2022-10-21T09:58:49.486Z,15.43
2022-10-21T09:59:49.474Z,15.47
2022-10-21T10:00:49.458Z,15.50
2022-10-21T10:01:49.500Z,15.44
2022-10-21T10:02:49.429Z,15.47
2022-10-21T10:03:49.407Z,15.47
2022-10-21T10:04:49.399Z,15.50
2022-10-21T10:05:49.376Z,15.51
2022-10-21T10:06:49.371Z,15.51
2022-10-21T10:07:49.366Z,15.60
2022-10-21T10:08:49.418Z,15.52
2022-10-21T10:09:49.318Z,15.62
2022-10-21T10:10:49.308Z,15.59
2022-10-21T10:11:49.300Z,15.57
2022-10-21T10:12:49.271Z,15.62
2022-10-21T10:13:49.255Z,15.62
2022-10-21T10:14:49.240Z,15.51
2022-10-21T10:15:49.224Z,15.59
2022-10-21T10:16:49.216Z,15.57
2022-10-21T10:17:49.192Z,15.59
2022-10-21T10:18:49.183Z,15.59
2022-10-21T10:19:49.165Z,15.65
2022-10-21T10:20:49.157Z,15.63
2022-10-21T10:21:49.133Z,15.62
2022-10-21T10:22:49.120Z,15.59
2022-10-21T10:23:49.103Z,15.57
2022-10-21T10:24:49.095Z,15.55
2022-10-21T10:25:49.077Z,15.50
2022-10-21T10:26:49.063Z,15.39
2022-10-21T10:27:49.043Z,15.47
2022-10-21T10:28:49.029Z,15.51
2022-10-21T10:29:49.012Z,15.48
2022-10-21T10:30:48.997Z,15.39
2022-10-21T10:31:50.714Z,15.41
2022-10-21T10:32:49.066Z,15.35
2022-10-21T10:33:48.959Z,15.37
2022-10-21T10:34:48.939Z,15.36
2022-10-21T10:35:48.922Z,15.32
2022-10-21T10:36:48.907Z,15.23
2022-10-21T10:37:48.897Z,15.22
2022-10-21T10:38:48.877Z,15.15
2022-10-21T10:39:48.875Z,15.19
2022-10-21T10:40:48.849Z,15.19
2022-10-21T10:41:48.828Z,15.04
2022-10-21T10:42:48.816Z,15.05
2022-10-21T10:43:48.803Z,15.02
2022-10-21T10:44:48.782Z,15.04
2022-10-21T10:45:48.770Z,15.02
2022-10-21T10:47:48.737Z,15.07
2022-10-21T10:48:48.818Z,15.04
2022-10-21T10:49:48.705Z,15.04
2022-10-21T10:50:48.690Z,15.05
2022-10-21T10:51:48.678Z,15.04
2022-10-21T10:52:48.665Z,15.04
2022-10-21T10:53:48.657Z,15.02
2022-10-21T10:54:48.633Z,15.08
2022-10-21T10:56:48.617Z,15.14
2022-10-21T10:57:59.139Z,15.19
2022-10-21T10:58:48.570Z,15.11
2022-10-21T10:59:48.554Z,15.23
2022-10-21T11:00:48.604Z,15.19
2022-10-21T11:01:48.520Z,15.18
2022-10-21T11:02:48.509Z,15.18
2022-10-21T11:03:48.493Z,15.17
2022-10-21T11:04:48.639Z,15.22
2022-10-21T11:05:48.466Z,15.15
2022-10-21T11:06:48.447Z,15.19
2022-10-21T11:07:48.433Z,15.25
2022-10-21T11:08:48.572Z,15.15
2022-10-21T11:09:48.402Z,15.33
2022-10-21T11:10:48.385Z,15.36
2022-10-21T11:11:48.374Z,15.39
2022-10-21T11:12:48.354Z,15.43
2022-10-21T11:13:48.431Z,15.43
2022-10-21T11:14:48.323Z,15.54
2022-10-21T11:15:48.307Z,15.57
2022-10-21T11:16:59.603Z,15.55
2022-10-21T11:17:48.276Z,15.55
2022-10-21T11:18:49.813Z,15.72
2022-10-21T11:19:48.246Z,15.69
2022-10-21T11:20:48.338Z,15.69
2022-10-21T11:21:48.216Z,15.78
2022-10-21T11:22:48.203Z,15.78
2022-10-21T11:23:48.186Z,15.83
2022-10-21T11:24:48.172Z,15.87
2022-10-21T11:25:48.160Z,15.83
2022-10-21T11:26:48.150Z,15.85
2022-10-21T11:27:48.126Z,15.90
2022-10-21T11:28:48.114Z,15.83
2022-10-21T11:29:48.096Z,15.92
2022-10-21T11:30:48.082Z,15.91
2022-10-21T11:32:10.090Z,15.90
2022-10-21T11:32:48.051Z,15.92
2022-10-21T11:33:48.034Z,15.92
2022-10-21T11:34:48.022Z,15.94
2022-10-21T11:35:48.010Z,15.98
2022-10-21T11:36:48.084Z,15.96
2022-10-21T11:37:47.976Z,16.03
2022-10-21T11:38:47.964Z,16.03
2022-10-21T11:39:47.948Z,16.02
2022-10-21T11:40:47.932Z,16.06
2022-10-21T11:41:47.916Z,16.05
2022-10-21T11:42:47.907Z,16.08
2022-10-21T11:43:47.892Z,16.12
2022-10-21T11:44:47.874Z,16.17
2022-10-21T11:45:47.864Z,16.13
2022-10-21T11:46:47.847Z,16.16
2022-10-21T11:47:47.834Z,16.21
2022-10-21T11:48:47.814Z,16.22
2022-10-21T11:49:47.797Z,16.17
2022-10-21T11:50:47.785Z,16.13
2022-10-21T11:51:47.768Z,16.21
2022-10-21T11:52:47.851Z,16.22
2022-10-21T11:53:47.739Z,16.28
2022-10-21T11:55:05.693Z,16.47
2022-10-21T11:55:47.708Z,16.51
2022-10-21T11:56:47.695Z,16.58
2022-10-21T11:57:47.681Z,16.64
2022-10-21T11:58:47.664Z,16.72
2022-10-21T11:59:51.632Z,16.80
2022-10-21T12:00:47.637Z,16.92
2022-10-21T12:01:47.631Z,16.94
2022-10-21T12:02:47.670Z,17.14
2022-10-21T12:03:47.592Z,17.20
2022-10-21T12:04:47.579Z,17.19
2022-10-21T12:05:47.566Z,17.34
2022-10-21T12:06:47.551Z,17.54
2022-10-21T12:07:47.536Z,17.47
2022-10-21T12:08:49.472Z,17.47
2022-10-21T12:09:47.508Z,17.49
2022-10-21T12:10:47.492Z,17.52
2022-10-21T12:11:47.480Z,17.44
2022-10-21T12:12:47.466Z,17.44
2022-10-21T12:13:47.451Z,17.41
2022-10-21T12:14:47.435Z,17.37
2022-10-21T12:15:47.427Z,17.41
2022-10-21T12:16:47.474Z,17.44
2022-10-21T12:17:47.393Z,17.54
2022-10-21T12:18:47.381Z,17.65
2022-10-21T12:19:47.367Z,17.86
2022-10-21T12:20:47.351Z,18.08
2022-10-21T12:21:47.390Z,18.19
2022-10-21T12:22:47.324Z,18.36
2022-10-21T12:23:47.313Z,18.46
2022-10-21T12:24:47.397Z,18.60
2022-10-21T12:25:47.287Z,18.74
2022-10-21T12:26:47.272Z,18.85
2022-10-21T12:27:47.258Z,18.96
2022-10-21T12:28:47.243Z,18.89
2022-10-21T12:29:47.231Z,18.92
2022-10-21T12:30:47.219Z,18.74
2022-10-21T12:31:47.235Z,18.82
2022-10-21T12:32:47.194Z,18.96
2022-10-21T12:33:47.185Z,18.96
2022-10-21T12:34:47.178Z,18.92
2022-10-21T12:35:47.168Z,18.82
2022-10-21T12:36:47.138Z,18.83
2022-10-21T12:37:47.178Z,18.83
2022-10-21T12:38:47.118Z,18.79
2022-10-21T12:39:47.102Z,18.70
2022-10-21T12:40:47.178Z,18.67
2022-10-21T12:41:47.075Z,18.68
2022-10-21T12:42:47.059Z,18.79
2022-10-21T12:43:47.052Z,18.71
2022-10-21T12:44:47.035Z,18.98
2022-10-21T12:45:47.027Z,19.12
2022-10-21T12:46:47.008Z,19.30
2022-10-21T12:47:46.996Z,19.56
2022-10-21T12:48:46.986Z,19.82
2022-10-21T12:49:46.970Z,20.07
2022-10-21T12:50:46.957Z,20.12
2022-10-21T12:51:46.948Z,19.92
2022-10-21T12:52:46.944Z,19.85
2022-10-21T12:53:46.951Z,19.63
2022-10-21T12:54:46.911Z,19.41
2022-10-21T12:55:46.903Z,19.30
2022-10-21T12:56:46.945Z,19.22
2022-10-21T12:57:46.871Z,19.00
2022-10-21T12:58:46.861Z,18.96
2022-10-21T12:59:46.846Z,18.89
2022-10-21T13:00:46.859Z,18.76
2022-10-21T13:01:46.821Z,18.86
2022-10-21T13:02:51.620Z,19.07
2022-10-21T13:03:46.805Z,19.27
2022-10-21T13:04:46.786Z,19.45
2022-10-21T13:05:46.771Z,19.72
2022-10-21T13:06:46.757Z,20.10
2022-10-21T13:07:46.746Z,20.29
2022-10-21T13:08:46.775Z,20.49
2022-10-21T13:09:46.721Z,20.64
2022-10-21T13:10:46.710Z,20.70
2022-10-21T13:11:46.700Z,20.86
2022-10-21T13:12:46.722Z,21.04
2022-10-21T13:13:46.675Z,21.11
2022-10-21T13:14:46.668Z,21.07
2022-10-21T13:15:46.655Z,21.07
2022-10-21T13:16:46.638Z,20.88
2022-10-21T13:17:46.631Z,20.71
2022-10-21T13:18:46.619Z,20.58
2022-10-21T13:19:46.608Z,20.55
2022-10-21T13:20:46.601Z,20.30
2022-10-21T13:21:46.610Z,20.18
2022-10-21T13:22:46.571Z,19.96
2022-10-21T13:23:46.560Z,19.79
2022-10-21T13:24:52.233Z,19.67
2022-10-21T13:25:55.215Z,19.53
2022-10-21T13:27:51.003Z,19.34
2022-10-21T13:28:50.968Z,19.16
2022-10-21T13:30:55.440Z,18.78
2022-10-21T13:31:55.401Z,18.68
2022-10-21T13:33:59.853Z,18.42
2022-10-21T13:34:59.840Z,18.43
2022-10-21T13:37:04.314Z,18.36
2022-10-21T13:38:04.275Z,18.34
2022-10-21T13:40:09.587Z,18.41
2022-10-21T13:41:09.553Z,18.34
2022-10-21T13:43:15.018Z,18.31
2022-10-21T13:44:15.014Z,18.27
2022-10-21T13:46:09.379Z,18.26
2022-10-21T13:47:09.350Z,18.19
2022-10-21T13:49:14.799Z,18.28